Granted Patents



NoApplication NoTitle Of The InnovationPatent NoGrant DateFirst Page
1 GC 2017-38290 SPOOLABLE SPLICE CONNECTOR AND METHOD FOR TUBING ENCAPSULATED CABLE GC0011548 2022/06/30 HTML
2 GC 2020-39190 A TOILET SEAT TO CLEAN AND DISINFECT THE SENSITIVE AREA FOR THE DISABLED, THE ELDERLY AND OBESE PATIENTS GC0011547 2022/06/28 HTML
3 GC 2019-36823 A self-evaporative evaporator GC0011546 2022/06/27 HTML
4 GC 2016-30719 METHODS AND SYSTEMS FOR PRODUCING DIRECT REDUCED IRON INCORPORATING A CARBON DIOXIDE AND STEAM REFORMER FED BY RECOVERED CARBON DIOXIDE GC0011545 2022/06/26 HTML
5 GC 2017-33405 MAT FOR WELLHEAD CELLAR GC0011544 2022/06/26 HTML
6 GC 2019-37596 METHOD AND APPARATUS FOR CT SCANNING OF LONGER WHOLE CORES GC0011543 2022/06/26 HTML
7 GC 2018-35158 PRESSURE PULSE ASSISTED INJECTION WATER FLOODING PROCESSES FOR CARBONATE RESERVOIRS GC0011542 2022/06/26 HTML
8 GC 2020-38946 AN EYE LEVEL FOLDABLE AND PORTABLE BOOK’S STAND GC0011541 2022/06/21 HTML
9 GC 2020-38957 SELF-EXTINGUISHING FOR FUEL TANKERS GC0011540 2022/06/21 HTML
10 GC 2020-40072 THE SMART YELLOW BOX CONTAINS A SIM CARD CONNECTED TO THE INTERNET A SMART YELLOW BOX GC0011539 2022/06/21 HTML
11 GC 2020-40386 A device that determines the psychological or physical state of the signal receiver GC0011538 2022/06/21 HTML
12 GC 2019-38279 ELECTRICAL ISOLATION IN TRANSFERRING POWER AND DATA SIGNALS BETWEEN COMPLETION SYSTEMS IN A DOWNHOLE ENVIRONMENT GC0011537 2022/06/21 HTML
13 GC 2019-37428 METHOD AND SYSTEM FOR COOLING A HYDROCARBON STREAM USING A GAS PHASE REFRIGERANT GC0011536 2022/06/21 HTML
14 GC 2018-34637 SYSTEMS AND METHODS FOR FORMING A COMPOSITE PART GC0011535 2020/12/09 HTML
15 GC 2018-36184 Method for erecting structural elements of building/construction of monolithic reinforced concrete and technological equipment to implement it GC0011534 2020/12/09 HTML
16 GC 2016-32229 CONTROL VALVE FOR FLUID TREATMENT APPARATUS GC0011533 2020/12/09 HTML
17 GC 2016-32633 METHODS AND APPRATUS FOR INDEPENDENTLY CONTROLLING SEATING FORCES IN ROTARY VALVES GC0011532 2020/12/09 HTML
18 GC 2017-34131 METHODS AND APPARATUS OF STABILIZING A VALVE POSITIONER WHEN TESTING A SOLENOID VALVE GC0011531 2020/12/09 HTML
19 GC 2017-34148 TRIM ASSEMBLY HAVING A SIDE BRANCH RESONATOR ARRAY AND FLUID CONTROL VALVE COMPRISING SAME GC0011530 2020/12/09 HTML
20 GC 2015-30646 UNFOLDING-TYPE DISPOSABLE DIAPER GC0011529 2020/12/09 HTML
21 GC 2012-21503 TRPV4 ANTAGONISTS GC0011528 2020/12/09 HTML
22 GC 2009-36848 SYSTEMS, ASSEMBLIES AND PROCESSES FOR CONTROLLING TOOLS IN A WELL BORE GC0011527 2020/12/09 HTML
23 GC 2018-35024 ANTI-PD-L1-ANTI-TIM-3 BISPECIFIC ANTIBODIES GC0011526 2020/12/09 HTML
24 GC 2017-32927 SURGE ARRESTER ARRANGEMENT GC0011525 2020/12/09 HTML
25 GC 2017-33690 SYSTEM AND METHOD FOR SEISMIC SENSOR RESPONSE CORRECTION GC0011524 2020/12/07 HTML
26 GC 2017-32865 VALVE OPERABLE BETWEEN OPEN AND CLOSED CONFIGURATIONS IN RESPONSE TO SAME DIRECTION DISPLACEMENT GC0011523 2020/12/07 HTML
27 GC 2008-11305 COMPOSITIONS OF EXPANDABLE VINYL AROMATIC POLYMERS AND PROCESS FOR THEIR PREPARATION GC0011522 2020/12/07 HTML
28 GC 2011-17893 FLEXIBLE LIQUEFIED NATURAL GAS PLANT GC0011521 2020/12/07 HTML
29 GC 2017-34376 SEISMIC ACQUISITION GEOMETRY FULL-WAVEFORM INVERSION GC0011520 2020/12/07 HTML
30 GC 2016-30849 CORROSION INHIBITORS AND KINETIC HYDRATE INHIBITORS GC0011519 2020/12/07 HTML
31 GC 2016-30755 LATCH PIN ASSEMBLY FOR FOLDING WING TIP SYSTEM GC0011518 2020/12/06 HTML
32 GC 2009-12989 A pigment particle composition, its method of manufacture and its use GC0011517 2020/12/06 HTML
33 GC 2017-32823 WINDER UNIT FOR VEHICLE GLAZING PANEL CUT OUT GC0011516 2020/12/06 HTML
34 GC 2017-34113 CURVED ALVEOLAR BONE DISTRACTOR GC0011515 2020/11/29 HTML
35 GC 2017-32963 3D IMAGE GENERATION WITH POSITION-SENSING GAMMA PROBE GC0011514 2020/11/29 HTML
36 GC 2005-4514 PROCESS FOR MAKING DIALKYL CARBONATES GC0011513 2020/11/29 HTML
37 GC 2016-30987 WATER ENVIRONMENT MOBILE ROBOTS GC0011512 2020/11/29 HTML
38 GC 2018-35149 ACOUSTIC CALIBRATION ARRAY FOR TANKS AND VESSELS GC0011511 2020/11/29 HTML
39 GC 2010-17025 PROCESS FOR THE PREPARATION OF NANO-SCALED GRAPHENE PLATELETS WITH A HIGH DISPERSIBILITY IN LOW-POLARITY POLYMERIC MATRIXES AND RELATIVE POLYMERIC COMPOSITIONS GC0011510 2020/11/29 HTML
40 GC 2010-17211 DISPOSABLE DIAPER GC0011509 2020/11/26 HTML
41 GC 2014-28160 BARREL TURBO-MACHINE COMPRISING RETRACTING SHEAR GC0011508 2020/11/26 HTML
42 GC 2015-30034 MULTISTAGE STACKED DISC CHOKE GC0011507 2020/11/26 HTML
43 GC 2013-24756 WEARING ARTICLE AND METHOD FOR MANUFACTURING THE SAME GC0011506 2020/11/26 HTML
44 GC 2013-33010 METHODS FOR MAKING CATALYST COMPOSITIONS AND POLYMER PRODUCTS PRODUCED THEREFROM GC0011505 2020/11/25 HTML
45 GC 2015-35689 BINDING MOLECULES SPECIFIC FOR CD73 AND USES THEREOF GC0011504 2020/11/24 HTML
46 GC 2012-20318 PYRAZOLE COMPOUNDS AS CRTH2 ANTAGONISTS GC0011503 2020/11/24 HTML
47 GC 2018-35398 SPINNER TOOL WITH FLOATING CARRIAGE DEVICE GC0011502 2020/11/24 HTML
48 GC 2017-34431 BUILDING COMPRISING A PLURALITY OF TOWERS GC0011501 2020/11/22 HTML
49 GC 2017-34480 SELF-SUPPORTING STRUCTURES HAVING ACTIVE MATERIALS GC0011500 2020/11/22 HTML
50 GC 2016-30983 AIRCRAFT IDENTIFICATION GC0011499 2020/11/22 HTML
12345678910...
العدد:

All Rights Reserved